地図

経路データ

SID SEASON NUMBER BASIN SUBBASIN NAME ISO_TIME NATURE LAT LON WMO_WIND WMO_PRES WMO_AGENCY TRACK_TYPE DIST2LAND LANDFALL IFLAG USA_AGENCY USA_ATCF_ID USA_LAT USA_LON USA_RECORD USA_STATUS USA_WIND USA_PRES USA_SSHS USA_R34_NE USA_R34_SE USA_R34_SW USA_R34_NW USA_R50_NE USA_R50_SE USA_R50_SW USA_R50_NW USA_R64_NE USA_R64_SE USA_R64_SW USA_R64_NW USA_POCI USA_ROCI USA_RMW USA_EYE TOKYO_LAT TOKYO_LON TOKYO_GRADE TOKYO_WIND TOKYO_PRES TOKYO_R50_DIR TOKYO_R50_LONG TOKYO_R50_SHORT TOKYO_R30_DIR TOKYO_R30_LONG TOKYO_R30_SHORT TOKYO_LAND CMA_LAT CMA_LON CMA_CAT CMA_WIND CMA_PRES HKO_LAT HKO_LON HKO_CAT HKO_WIND HKO_PRES NEWDELHI_LAT NEWDELHI_LON NEWDELHI_GRADE NEWDELHI_WIND NEWDELHI_PRES NEWDELHI_CI NEWDELHI_DP NEWDELHI_POCI REUNION_LAT REUNION_LON REUNION_TYPE REUNION_WIND REUNION_PRES REUNION_TNUM REUNION_CI REUNION_RMW REUNION_R34_NE REUNION_R34_SE REUNION_R34_SW REUNION_R34_NW REUNION_R50_NE REUNION_R50_SE REUNION_R50_SW REUNION_R50_NW REUNION_R64_NE REUNION_R64_SE REUNION_R64_SW REUNION_R64_NW BOM_LAT BOM_LON BOM_TYPE BOM_WIND BOM_PRES BOM_TNUM BOM_CI BOM_RMW BOM_R34_NE BOM_R34_SE BOM_R34_SW BOM_R34_NW BOM_R50_NE BOM_R50_SE BOM_R50_SW BOM_R50_NW BOM_R64_NE BOM_R64_SE BOM_R64_SW BOM_R64_NW BOM_ROCI BOM_POCI BOM_EYE BOM_POS_METHOD BOM_PRES_METHOD NADI_LAT NADI_LON NADI_CAT NADI_WIND NADI_PRES WELLINGTON_LAT WELLINGTON_LON WELLINGTON_WIND WELLINGTON_PRES DS824_LAT DS824_LON DS824_STAGE DS824_WIND DS824_PRES TD9636_LAT TD9636_LON TD9636_STAGE TD9636_WIND TD9636_PRES TD9635_LAT TD9635_LON TD9635_WIND TD9635_PRES TD9635_ROCI NEUMANN_LAT NEUMANN_LON NEUMANN_CLASS NEUMANN_WIND NEUMANN_PRES MLC_LAT MLC_LON MLC_CLASS MLC_WIND MLC_PRES USA_GUST BOM_GUST BOM_GUST_PER REUNION_GUST REUNION_GUST_PER USA_SEAHGT USA_SEARAD_NE USA_SEARAD_SE USA_SEARAD_SW USA_SEARAD_NW STORM_SPEED STORM_DIR
1968234N13264 1968 68 EP MM IVA 1968-08-21 00:00:00 TS 13.0000 -96.0000 25 hurdat_epa main 298 291 O________OO___ hurdat_epa EP091968 13.0000 -96.0000 TD 25 -1 13.0000 -96.0000 TC 25 13.0000 -96.0000 1 9 276
1968234N13264 1968 68 EP MM IVA 1968-08-21 03:00:00 TS 13.0493 -96.4541 main 291 279 P________PP___ EP091968 13.0552 -96.4524 TD 25 -1 13.0552 -96.4524 TC 25 13.0259 -96.4609 1 9 276
1968234N13264 1968 68 EP MM IVA 1968-08-21 06:00:00 TS 13.0922 -96.9035 25 hurdat_epa main 281 281 O________OP___ hurdat_epa EP091968 13.1000 -96.9000 TD 25 -1 13.1000 -96.9000 TC 25 13.0611 -96.9174 1 9 275
1968234N13264 1968 68 EP MM IVA 1968-08-21 09:00:00 TS 13.1311 -97.3471 main 289 285 P________PP___ EP091968 13.1349 -97.3426 TD 25 -1 13.1349 -97.3426 TC 25 13.1157 -97.3652 1 9 277
1968234N13264 1968 68 EP MM IVA 1968-08-21 12:00:00 TS 13.2000 -97.8000 25 hurdat_epa main 298 298 O________OO___ hurdat_epa EP091968 13.2000 -97.8000 TD 25 -1 13.2000 -97.8000 TC 25 13.2000 -97.8000 2 9 282
1968234N13264 1968 68 EP MM IVA 1968-08-21 15:00:00 TS 13.3321 -98.2846 main 307 296 P________PP___ EP091968 13.3350 -98.3000 TD 25 -1 13.3350 -98.3000 TC 25 13.3204 -98.2233 2 10 287
1968234N13264 1968 68 EP MM IVA 1968-08-21 18:00:00 TS 13.4937 -98.7721 25 hurdat_epa main 299 293 O________OP___ hurdat_epa EP091968 13.5000 -98.8000 TD 25 -1 13.5000 -98.8000 TC 25 13.4686 -98.6604 2 9 289
1968234N13264 1968 68 EP MM IVA 1968-08-21 21:00:00 TS 13.6462 -99.1986 main 307 296 P________PP___ EP091968 13.6496 -99.2127 TD 35 0 13.6496 -99.2127 TC 35 13.6326 -99.1422 2 10 289
1968234N13264 1968 68 EP MM IVA 1968-08-22 00:00:00 TS 13.8000 -99.7000 45 hurdat_epa main 303 302 O________OO___ hurdat_epa EP091968 13.8000 -99.7000 TS 45 0 13.8000 -99.7000 TC 45 13.8000 -99.7000 2 12 285
1968234N13264 1968 68 EP MM IVA 1968-08-22 03:00:00 TS 13.9518 -100.398 main 311 311 P________PP___ EP091968 13.9501 -100.405 TS 45 0 13.9501 -100.405 TC 45 13.9585 -100.371 2 15 282
1968234N13264 1968 68 EP MM IVA 1968-08-22 06:00:00 TS 14.1031 -101.183 45 hurdat_epa main 332 332 O________OP___ hurdat_epa EP091968 14.1000 -101.200 TS 45 0 14.1000 -101.200 TC 45 14.1154 -101.117 2 15 282
1968234N13264 1968 68 EP MM IVA 1968-08-22 09:00:00 TS 14.2587 -101.941 main 345 345 P________PP___ EP091968 14.2573 -101.950 TS 45 0 14.2573 -101.950 TC 45 14.2645 -101.905 2 15 281
1968234N13264 1968 68 EP MM IVA 1968-08-22 12:00:00 TS 14.4000 -102.700 45 hurdat_epa main 366 366 O________OO___ hurdat_epa EP091968 14.4000 -102.700 TS 45 0 14.4000 -102.700 TC 45 14.4000 -102.700 2 15 279
1968234N13264 1968 68 EP MM IVA 1968-08-22 15:00:00 TS 14.5029 -103.451 main 401 401 P________PP___ EP091968 14.5073 -103.450 TS 45 0 14.5073 -103.450 TC 45 14.4853 -103.455 2 15 278
1968234N13264 1968 68 EP MM IVA 1968-08-22 18:00:00 TS 14.5923 -104.202 45 hurdat_epa main 415 415 O________OP___ hurdat_epa EP091968 14.6000 -104.200 TS 45 0 14.6000 -104.200 TC 45 14.5617 -104.209 2 15 277
1968234N13264 1968 68 EP MM IVA 1968-08-22 21:00:00 TS 14.6793 -104.952 main 433 433 P________PP___ EP091968 14.6848 -104.950 TS 45 0 14.6848 -104.950 TC 45 14.6572 -104.958 2 15 278
1968234N13264 1968 68 EP MM IVA 1968-08-23 00:00:00 TS 14.8000 -105.700 45 hurdat_epa main 456 456 O________OO___ hurdat_epa EP091968 14.8000 -105.700 TS 45 0 14.8000 -105.700 TC 45 14.8000 -105.700 2 15 281
1968234N13264 1968 68 EP MM IVA 1968-08-23 03:00:00 TS 14.9698 -106.452 main 488 488 P________PP___ EP091968 14.9623 -106.458 TS 45 0 14.9623 -106.458 TC 45 14.9995 -106.429 2 15 286
1968234N13264 1968 68 EP MM IVA 1968-08-23 06:00:00 TS 15.2103 -107.190 45 hurdat_epa main 515 510 O________OP___ hurdat_epa EP091968 15.2000 -107.200 TS 45 0 15.2000 -107.200 TC 45 15.2513 -107.151 2 15 292
1968234N13264 1968 68 EP MM IVA 1968-08-23 09:00:00 TS 15.5262 -107.895 main 528 526 P________PP___ EP091968 15.5196 -107.900 TS 45 0 15.5196 -107.900 TC 45 15.5526 -107.873 2 15 297
1968234N13264 1968 68 EP MM IVA 1968-08-23 12:00:00 TS 15.9000 -108.600 45 hurdat_epa main 546 546 O________OO___ hurdat_epa EP091968 15.9000 -108.600 TS 45 0 15.9000 -108.600 TC 45 15.9000 -108.600 2 16 299
1968234N13264 1968 68 EP MM IVA 1968-08-23 15:00:00 TS 16.2866 -109.344 main 568 568 P________PP___ EP091968 16.2848 -109.343 TS 45 0 16.2848 -109.343 TC 45 16.2935 -109.347 2 17 299
1968234N13264 1968 68 EP MM IVA 1968-08-23 18:00:00 TS 16.7054 -110.100 45 hurdat_epa main 608 608 O________OP___ hurdat_epa EP091968 16.7000 -110.100 TS 45 0 16.7000 -110.100 TC 45 16.7268 -110.100 2 17 301
1968234N13264 1968 68 EP MM IVA 1968-08-23 21:00:00 TS 17.1601 -110.851 main 644 613 P________PP___ EP091968 17.1572 -110.850 TS 45 0 17.1572 -110.850 TC 45 17.1716 -110.853 2 17 302
1968234N13264 1968 68 EP MM IVA 1968-08-24 00:00:00 TS 17.6000 -111.600 45 hurdat_epa main 615 600 O________OO___ hurdat_epa EP091968 17.6000 -111.600 TS 45 0 17.6000 -111.600 TC 45 17.6000 -111.600 2 16 299
1968234N13264 1968 68 EP MM IVA 1968-08-24 03:00:00 TS 17.9620 -112.357 main 602 600 P________PP___ EP091968 17.9648 -112.358 TS 45 0 17.9648 -112.358 TC 45 17.9508 -112.354 2 16 296
1968234N13264 1968 68 EP MM IVA 1968-08-24 06:00:00 TS 18.2969 -113.099 45 hurdat_epa main 607 603 O________OP___ hurdat_epa EP091968 18.3000 -113.100 TS 45 0 18.3000 -113.100 TC 45 18.2845 -113.097 2 15 296
1968234N13264 1968 68 EP MM IVA 1968-08-24 09:00:00 TS 18.6330 -113.822 main 622 620 P________PP___ EP091968 18.6348 -113.823 TS 45 0 18.6348 -113.823 TC 45 18.6259 -113.817 2 15 298
1968234N13264 1968 68 EP MM IVA 1968-08-24 12:00:00 TS 19.0000 -114.500 45 hurdat_epa main 639 639 O________OO___ hurdat_epa EP091968 19.0000 -114.500 TS 45 0 19.0000 -114.500 TC 45 19.0000 -114.500 2 15 303
1968234N13264 1968 68 EP MM IVA 1968-08-24 15:00:00 TS 19.4276 -115.116 main 657 648 P________PP___ EP091968 19.4272 -115.115 TS 45 0 19.4272 -115.115 TC 45 19.4293 -115.117 2 14 308
1968234N13264 1968 68 EP MM IVA 1968-08-24 18:00:00 TS 19.8990 -115.700 45 hurdat_epa main 651 643 O________OP___ hurdat_epa EP091968 19.9000 -115.700 TS 45 0 19.9000 -115.700 TC 45 19.8952 -115.702 2 15 311
1968234N13264 1968 68 EP MM IVA 1968-08-24 21:00:00 TS 20.3854 -116.286 main 645 642 P________PP___ EP091968 20.3846 -116.286 TS 45 0 20.3846 -116.286 TC 45 20.3886 -116.286 2 15 312
1968234N13264 1968 68 EP MM IVA 1968-08-25 00:00:00 TS 20.9000 -116.900 45 hurdat_epa main 649 649 O________OO___ hurdat_epa EP091968 20.9000 -116.900 TS 45 0 20.9000 -116.900 TC 45 20.9000 -116.900 2 16 311
1968234N13264 1968 68 EP MM IVA 1968-08-25 03:00:00 TS 21.4476 -117.581 main 670 663 P________PP___ EP091968 21.4498 -117.578 TS 45 0 21.4498 -117.578 TC 45 21.4389 -117.593 2 17 310
1968234N13264 1968 68 EP MM IVA 1968-08-25 06:00:00 TS 21.9975 -118.304 45 hurdat_epa main 696 696 O________OP___ hurdat_epa EP091968 22.0000 -118.300 TS 45 0 22.0000 -118.300 TC 45 21.9873 -118.319 2 17 308
1968234N13264 1968 68 EP MM IVA 1968-08-25 09:00:00 TS 22.5213 -119.052 main 707 698 P________PP___ EP091968 22.5223 -119.050 TS 35 0 22.5223 -119.050 TC 35 22.5170 -119.061 2 17 306
1968234N13264 1968 68 EP MM IVA 1968-08-25 12:00:00 TS 23.0000 -119.800 25 hurdat_epa main 712 711 O________OO___ hurdat_epa EP091968 23.0000 -119.800 TD 25 -1 23.0000 -119.800 TC 25 23.0000 -119.800 6 16 304
1968234N13264 1968 68 EP MM IVA 1968-08-25 15:00:00 TS 23.4269 -120.510 main 731 731 P________PP___ EP091968 23.4296 -120.508 TD 25 -1 23.4296 -120.508 TC 25 23.4164 -120.519 6 15 302
1968234N13264 1968 68 EP MM IVA 1968-08-25 18:00:00 TS 23.7953 -121.204 25 hurdat_epa main 757 757 O________OP___ hurdat_epa EP091968 23.8000 -121.200 TD 25 -1 23.8000 -121.200 TC 25 23.7767 -121.222 6 14 298
1968234N13264 1968 68 EP MM IVA 1968-08-25 21:00:00 TS 24.1123 -121.900 main 798 798 P________PP___ EP091968 24.1157 -121.897 TD 25 -1 24.1157 -121.897 TC 25 24.0987 -121.913 6 14 295
1968234N13264 1968 68 EP MM IVA 1968-08-26 00:00:00 TS 24.4000 -122.600 25 hurdat_epa main 843 O________OO___ hurdat_epa EP091968 24.4000 -122.600 TD 25 -1 24.4000 -122.600 TC 25 24.4000 -122.600 6 14 294

IBTrACS Databaseについて

本データベースは、米国NOAAが公開する1842年以降の世界の熱帯低気圧のベストトラックデータアーカイブInternational Best Track Archive for Climate Stewardship (IBTrACS)を、ウェブで閲覧しやすい形式に変換したものです。

最終更新日:2021-11-26